sensor_id;sensor_type;location;lat;lon;timestamp;pressure;altitude;pressure_sealevel;temperature;humidity
75923;BME280;64602;47.542;19.090;2024-03-08T00:03:11;100725.97;;;5.29;98.25
75923;BME280;64602;47.542;19.090;2024-03-08T00:08:13;100717.69;;;5.24;98.18
75923;BME280;64602;47.542;19.090;2024-03-08T00:13:15;100712.31;;;5.30;98.13
75923;BME280;64602;47.542;19.090;2024-03-08T00:18:17;100717.50;;;5.32;98.33
75923;BME280;64602;47.542;19.090;2024-03-08T00:23:20;100712.53;;;5.29;97.93
75923;BME280;64602;47.542;19.090;2024-03-08T00:28:22;100718.94;;;5.34;97.78
75923;BME280;64602;47.542;19.090;2024-03-08T00:33:27;100720.81;;;5.34;97.90
75923;BME280;64602;47.542;19.090;2024-03-08T00:38:29;100696.19;;;5.24;97.74
75923;BME280;64602;47.542;19.090;2024-03-08T00:43:31;100704.44;;;5.35;97.55
75923;BME280;64602;47.542;19.090;2024-03-08T00:48:33;100699.91;;;5.29;97.26
75923;BME280;64602;47.542;19.090;2024-03-08T00:53:36;100699.06;;;5.29;97.32
75923;BME280;64602;47.542;19.090;2024-03-08T00:58:38;100699.50;;;5.32;97.38
75923;BME280;64602;47.542;19.090;2024-03-08T01:03:43;100686.84;;;5.33;97.46
75923;BME280;64602;47.542;19.090;2024-03-08T01:08:45;100695.13;;;5.31;97.43
75923;BME280;64602;47.542;19.090;2024-03-08T01:13:47;100697.84;;;5.25;97.81
75923;BME280;64602;47.542;19.090;2024-03-08T01:18:49;100686.47;;;5.29;97.92
75923;BME280;64602;47.542;19.090;2024-03-08T01:23:52;100684.97;;;5.40;97.71
75923;BME280;64602;47.542;19.090;2024-03-08T01:28:55;100681.69;;;5.25;98.13
75923;BME280;64602;47.542;19.090;2024-03-08T01:33:58;100688.72;;;5.26;98.16
75923;BME280;64602;47.542;19.090;2024-03-08T01:39:00;100687.28;;;5.23;98.07
75923;BME280;64602;47.542;19.090;2024-03-08T01:44:02;100694.94;;;5.26;97.66
75923;BME280;64602;47.542;19.090;2024-03-08T01:49:05;100683.53;;;5.31;97.75
75923;BME280;64602;47.542;19.090;2024-03-08T01:54:08;100693.69;;;5.35;97.60
75923;BME280;64602;47.542;19.090;2024-03-08T01:59:12;100685.03;;;5.20;97.55
75923;BME280;64602;47.542;19.090;2024-03-08T02:04:16;100685.03;;;5.27;97.80
75923;BME280;64602;47.542;19.090;2024-03-08T02:09:18;100680.47;;;5.27;98.11
75923;BME280;64602;47.542;19.090;2024-03-08T02:14:21;100685.84;;;5.34;97.32
75923;BME280;64602;47.542;19.090;2024-03-08T02:19:23;100695.34;;;5.37;96.21
75923;BME280;64602;47.542;19.090;2024-03-08T02:24:25;100684.59;;;5.30;96.37
75923;BME280;64602;47.542;19.090;2024-03-08T02:29:28;100698.25;;;5.28;95.56
75923;BME280;64602;47.542;19.090;2024-03-08T02:34:31;100689.13;;;5.36;95.50
75923;BME280;64602;47.542;19.090;2024-03-08T02:39:33;100682.53;;;5.25;95.36
75923;BME280;64602;47.542;19.090;2024-03-08T02:44:35;100693.47;;;5.30;95.28
75923;BME280;64602;47.542;19.090;2024-03-08T02:49:37;100688.97;;;5.24;96.08
75923;BME280;64602;47.542;19.090;2024-03-08T02:54:40;100700.31;;;5.26;95.27
75923;BME280;64602;47.542;19.090;2024-03-08T02:59:42;100687.91;;;5.25;94.85
75923;BME280;64602;47.542;19.090;2024-03-08T03:04:44;100697.22;;;5.23;94.54
75923;BME280;64602;47.542;19.090;2024-03-08T03:09:46;100696.41;;;5.22;94.30
75923;BME280;64602;47.542;19.090;2024-03-08T03:14:48;100705.50;;;5.21;94.15
75923;BME280;64602;47.542;19.090;2024-03-08T03:19:51;100703.44;;;5.17;93.93
75923;BME280;64602;47.542;19.090;2024-03-08T03:24:54;100707.56;;;5.26;93.04
75923;BME280;64602;47.542;19.090;2024-03-08T03:29:56;100707.38;;;5.27;92.39
75923;BME280;64602;47.542;19.090;2024-03-08T03:34:59;100693.91;;;5.21;92.88
75923;BME280;64602;47.542;19.090;2024-03-08T03:40:07;100701.78;;;5.09;91.94
75923;BME280;64602;47.542;19.090;2024-03-08T03:45:10;100700.75;;;5.10;91.64
75923;BME280;64602;47.542;19.090;2024-03-08T03:50:12;100712.34;;;5.10;91.46
75923;BME280;64602;47.542;19.090;2024-03-08T03:55:15;100710.28;;;5.12;91.92
75923;BME280;64602;47.542;19.090;2024-03-08T04:00:17;100698.66;;;5.12;92.44
75923;BME280;64602;47.542;19.090;2024-03-08T04:05:20;100698.06;;;5.03;92.25
75923;BME280;64602;47.542;19.090;2024-03-08T04:10:23;100700.34;;;5.00;93.05
75923;BME280;64602;47.542;19.090;2024-03-08T04:15:25;100708.81;;;4.97;92.78
75923;BME280;64602;47.542;19.090;2024-03-08T04:20:27;100703.66;;;4.95;93.18
75923;BME280;64602;47.542;19.090;2024-03-08T04:25:29;100701.56;;;4.97;93.47
75923;BME280;64602;47.542;19.090;2024-03-08T04:30:31;100711.09;;;5.00;93.37
75923;BME280;64602;47.542;19.090;2024-03-08T04:35:33;100711.09;;;5.00;92.87
75923;BME280;64602;47.542;19.090;2024-03-08T04:40:36;100708.41;;;5.00;91.85
75923;BME280;64602;47.542;19.090;2024-03-08T04:45:38;100706.34;;;5.02;91.53
75923;BME280;64602;47.542;19.090;2024-03-08T04:50:41;100718.94;;;5.14;91.71
75923;BME280;64602;47.542;19.090;2024-03-08T04:55:43;100724.13;;;5.09;92.02
75923;BME280;64602;47.542;19.090;2024-03-08T05:00:46;100709.47;;;5.05;91.62
75923;BME280;64602;47.542;19.090;2024-03-08T05:05:48;100720.62;;;5.09;91.02
75923;BME280;64602;47.542;19.090;2024-03-08T05:10:50;100724.56;;;5.13;90.69
75923;BME280;64602;47.542;19.090;2024-03-08T05:15:53;100715.44;;;5.14;90.43
75923;BME280;64602;47.542;19.090;2024-03-08T05:20:56;100716.69;;;5.11;90.28
75923;BME280;64602;47.542;19.090;2024-03-08T05:25:58;100711.28;;;5.05;90.98
75923;BME280;64602;47.542;19.090;2024-03-08T05:31:00;100711.09;;;5.06;90.12
75923;BME280;64602;47.542;19.090;2024-03-08T05:36:03;100726.62;;;5.04;90.13
75923;BME280;64602;47.542;19.090;2024-03-08T05:41:05;100736.75;;;5.09;89.95
75923;BME280;64602;47.542;19.090;2024-03-08T05:46:09;100734.50;;;5.12;90.31
75923;BME280;64602;47.542;19.090;2024-03-08T05:51:13;100740.06;;;5.18;89.73
75923;BME280;64602;47.542;19.090;2024-03-08T05:56:15;100742.34;;;5.21;89.60
75923;BME280;64602;47.542;19.090;2024-03-08T06:01:17;100747.31;;;5.24;89.39
75923;BME280;64602;47.542;19.090;2024-03-08T06:06:20;100766.56;;;5.21;89.28
75923;BME280;64602;47.542;19.090;2024-03-08T06:11:23;100758.91;;;5.24;89.71
75923;BME280;64602;47.542;19.090;2024-03-08T06:16:28;100753.94;;;5.21;89.31
75923;BME280;64602;47.542;19.090;2024-03-08T06:21:31;100749.59;;;5.20;88.96
75923;BME280;64602;47.542;19.090;2024-03-08T06:26:34;100765.50;;;5.28;89.72
75923;BME280;64602;47.542;19.090;2024-03-08T06:31:40;100758.28;;;5.22;89.57
75923;BME280;64602;47.542;19.090;2024-03-08T06:36:42;100766.75;;;5.32;89.79
75923;BME280;64602;47.542;19.090;2024-03-08T06:41:45;100774.00;;;5.39;89.86
75923;BME280;64602;47.542;19.090;2024-03-08T06:46:47;100782.91;;;5.39;89.48
75923;BME280;64602;47.542;19.090;2024-03-08T06:51:50;100783.75;;;5.46;89.51
75923;BME280;64602;47.542;19.090;2024-03-08T06:56:52;100784.97;;;5.50;90.06
75923;BME280;64602;47.542;19.090;2024-03-08T07:01:54;100785.78;;;5.51;89.85
75923;BME280;64602;47.542;19.090;2024-03-08T07:06:57;100784.53;;;5.60;89.60
75923;BME280;64602;47.542;19.090;2024-03-08T07:11:59;100775.22;;;5.63;88.52
75923;BME280;64602;47.542;19.090;2024-03-08T07:17:01;100780.59;;;5.76;88.09
75923;BME280;64602;47.542;19.090;2024-03-08T07:22:07;100791.12;;;5.84;87.67
75923;BME280;64602;47.542;19.090;2024-03-08T07:27:10;100781.78;;;5.80;87.81
75923;BME280;64602;47.542;19.090;2024-03-08T07:32:14;100780.78;;;5.88;88.27
75923;BME280;64602;47.542;19.090;2024-03-08T07:37:27;100783.03;;;5.91;88.07
75923;BME280;64602;47.542;19.090;2024-03-08T07:42:29;100794.44;;;5.86;87.28
75923;BME280;64602;47.542;19.090;2024-03-08T07:47:31;100800.00;;;5.91;87.13
75923;BME280;64602;47.542;19.090;2024-03-08T07:52:35;100804.59;;;5.97;86.96
75923;BME280;64602;47.542;19.090;2024-03-08T07:57:38;100794.44;;;5.93;87.82
75923;BME280;64602;47.542;19.090;2024-03-08T08:02:41;100796.91;;;5.94;87.49
75923;BME280;64602;47.542;19.090;2024-03-08T08:07:47;100790.91;;;5.99;87.66
75923;BME280;64602;47.542;19.090;2024-03-08T08:12:53;100810.16;;;6.09;88.11
75923;BME280;64602;47.542;19.090;2024-03-08T08:17:55;100805.56;;;6.16;87.76
75923;BME280;64602;47.542;19.090;2024-03-08T08:22:58;100796.72;;;6.03;87.52
75923;BME280;64602;47.542;19.090;2024-03-08T08:28:01;100795.44;;;6.12;87.88
75923;BME280;64602;47.542;19.090;2024-03-08T08:33:06;100798.53;;;6.09;87.59
75923;BME280;64602;47.542;19.090;2024-03-08T08:38:08;100800.00;;;5.91;88.07
75923;BME280;64602;47.542;19.090;2024-03-08T08:43:10;100811.00;;;6.10;88.32
75923;BME280;64602;47.542;19.090;2024-03-08T08:48:13;100805.34;;;6.18;88.01
75923;BME280;64602;47.542;19.090;2024-03-08T08:53:15;100809.28;;;6.29;88.32
75923;BME280;64602;47.542;19.090;2024-03-08T08:58:19;100810.28;;;6.28;88.30
75923;BME280;64602;47.542;19.090;2024-03-08T09:03:21;100804.91;;;6.28;89.12
75923;BME280;64602;47.542;19.090;2024-03-08T09:08:25;100813.19;;;6.33;88.90
75923;BME280;64602;47.542;19.090;2024-03-08T09:13:31;100807.94;;;6.45;88.14
75923;BME280;64602;47.542;19.090;2024-03-08T09:18:36;100793.00;;;6.49;88.16
75923;BME280;64602;47.542;19.090;2024-03-08T09:23:38;100797.75;;;6.53;88.04
75923;BME280;64602;47.542;19.090;2024-03-08T09:28:40;100783.63;;;6.58;88.16
75923;BME280;64602;47.542;19.090;2024-03-08T09:33:42;100802.41;;;6.71;87.98
75923;BME280;64602;47.542;19.090;2024-03-08T09:38:45;100805.06;;;6.84;87.76
75923;BME280;64602;47.542;19.090;2024-03-08T09:43:47;100801.78;;;7.07;86.07
75923;BME280;64602;47.542;19.090;2024-03-08T09:48:50;100786.72;;;7.18;85.99
75923;BME280;64602;47.542;19.090;2024-03-08T09:53:52;100795.28;;;7.40;85.32
75923;BME280;64602;47.542;19.090;2024-03-08T09:58:55;100792.09;;;7.50;84.71
75923;BME280;64602;47.542;19.090;2024-03-08T10:04:20;100797.31;;;7.70;84.21
75923;BME280;64602;47.542;19.090;2024-03-08T10:09:24;100792.78;;;7.64;84.57
75923;BME280;64602;47.542;19.090;2024-03-08T10:14:28;100801.50;;;7.66;84.90
75923;BME280;64602;47.542;19.090;2024-03-08T10:19:30;100803.53;;;7.70;83.49
75923;BME280;64602;47.542;19.090;2024-03-08T10:24:33;100800.63;;;7.72;83.39
75923;BME280;64602;47.542;19.090;2024-03-08T10:29:38;100793.03;;;7.81;83.27
75923;BME280;64602;47.542;19.090;2024-03-08T10:34:45;100805.50;;;7.82;83.19
75923;BME280;64602;47.542;19.090;2024-03-08T10:40:03;100802.28;;;7.91;83.52
75923;BME280;64602;47.542;19.090;2024-03-08T10:45:34;100804.62;;;8.06;82.82
75923;BME280;64602;47.542;19.090;2024-03-08T10:50:37;100790.78;;;8.33;81.62
75923;BME280;64602;47.542;19.090;2024-03-08T10:55:42;100792.75;;;8.74;80.33
75923;BME280;64602;47.542;19.090;2024-03-08T11:00:44;100787.19;;;8.99;78.79
75923;BME280;64602;47.542;19.090;2024-03-08T11:05:46;100783.25;;;8.84;78.05
75923;BME280;64602;47.542;19.090;2024-03-08T11:10:52;100777.97;;;8.59;79.25
75923;BME280;64602;47.542;19.090;2024-03-08T11:15:56;100770.50;;;8.42;79.51
75923;BME280;64602;47.542;19.090;2024-03-08T11:20:58;100790.25;;;8.24;79.98
75923;BME280;64602;47.542;19.090;2024-03-08T11:26:00;100775.38;;;8.15;80.40
75923;BME280;64602;47.542;19.090;2024-03-08T11:36:10;100772.84;;;8.02;79.01
75923;BME280;64602;47.542;19.090;2024-03-08T11:41:21;100770.69;;;7.92;79.82
75923;BME280;64602;47.542;19.090;2024-03-08T11:46:24;100769.63;;;8.11;80.01
75923;BME280;64602;47.542;19.090;2024-03-08T11:51:27;100753.00;;;8.08;79.53
75923;BME280;64602;47.542;19.090;2024-03-08T11:56:29;100759.63;;;8.12;78.92
75923;BME280;64602;47.542;19.090;2024-03-08T12:01:31;100751.34;;;8.44;78.34
75923;BME280;64602;47.542;19.090;2024-03-08T12:06:38;100752.59;;;8.60;77.97
75923;BME280;64602;47.542;19.090;2024-03-08T12:11:43;100754.31;;;8.54;77.63
75923;BME280;64602;47.542;19.090;2024-03-08T12:16:50;100748.78;;;8.49;77.87
75923;BME280;64602;47.542;19.090;2024-03-08T12:21:54;100732.50;;;8.19;78.48
75923;BME280;64602;47.542;19.090;2024-03-08T12:26:56;100739.06;;;8.11;79.14
75923;BME280;64602;47.542;19.090;2024-03-08T12:31:59;100747.31;;;7.98;80.32
75923;BME280;64602;47.542;19.090;2024-03-08T12:37:03;100726.03;;;8.20;80.11
75923;BME280;64602;47.542;19.090;2024-03-08T12:42:09;100735.16;;;8.37;79.80
75923;BME280;64602;47.542;19.090;2024-03-08T12:47:11;100725.88;;;8.33;80.03
75923;BME280;64602;47.542;19.090;2024-03-08T12:52:13;100729.75;;;8.37;79.44
75923;BME280;64602;47.542;19.090;2024-03-08T12:57:15;100714.47;;;8.31;78.46
75923;BME280;64602;47.542;19.090;2024-03-08T13:02:18;100727.91;;;8.38;78.94
75923;BME280;64602;47.542;19.090;2024-03-08T13:07:21;100717.78;;;8.33;78.74
75923;BME280;64602;47.542;19.090;2024-03-08T13:12:23;100710.19;;;8.23;78.82
75923;BME280;64602;47.542;19.090;2024-03-08T13:17:25;100709.34;;;8.23;79.03
75923;BME280;64602;47.542;19.090;2024-03-08T13:22:28;100710.16;;;8.11;79.56
75923;BME280;64602;47.542;19.090;2024-03-08T13:27:30;100704.81;;;8.05;79.81
75923;BME280;64602;47.542;19.090;2024-03-08T13:32:33;100700.75;;;7.96;80.17
75923;BME280;64602;47.542;19.090;2024-03-08T13:37:35;100699.28;;;8.00;80.40
75923;BME280;64602;47.542;19.090;2024-03-08T13:42:37;100704.69;;;8.00;80.69
75923;BME280;64602;47.542;19.090;2024-03-08T13:47:40;100701.44;;;7.91;80.63
75923;BME280;64602;47.542;19.090;2024-03-08T13:52:43;100690.63;;;7.91;80.82
75923;BME280;64602;47.542;19.090;2024-03-08T13:57:47;100704.69;;;8.00;80.30
75923;BME280;64602;47.542;19.090;2024-03-08T14:02:50;100691.69;;;8.08;79.87
75923;BME280;64602;47.542;19.090;2024-03-08T14:07:52;100686.50;;;8.07;80.25
75923;BME280;64602;47.542;19.090;2024-03-08T14:12:57;100695.13;;;8.16;79.98
75923;BME280;64602;47.542;19.090;2024-03-08T14:17:59;100676.97;;;8.04;80.47
75923;BME280;64602;47.542;19.090;2024-03-08T14:23:01;100679.16;;;7.96;80.37
75923;BME280;64602;47.542;19.090;2024-03-08T14:28:04;100673.59;;;7.90;81.25
75923;BME280;64602;47.542;19.090;2024-03-08T14:33:09;100683.56;;;8.08;80.70
75923;BME280;64602;47.542;19.090;2024-03-08T14:38:12;100674.72;;;8.01;79.97
75923;BME280;64602;47.542;19.090;2024-03-08T14:43:21;100682.72;;;8.08;80.02
75923;BME280;64602;47.542;19.090;2024-03-08T14:48:24;100675.75;;;8.00;80.11
75923;BME280;64602;47.542;19.090;2024-03-08T14:53:26;100675.28;;;7.91;80.36
75923;BME280;64602;47.542;19.090;2024-03-08T14:58:29;100673.69;;;7.84;81.00
75923;BME280;64602;47.542;19.090;2024-03-08T15:03:31;100668.38;;;7.77;81.46
75923;BME280;64602;47.542;19.090;2024-03-08T15:08:35;100675.13;;;7.68;81.91
75923;BME280;64602;47.542;19.090;2024-03-08T15:13:38;100664.84;;;7.58;82.07
75923;BME280;64602;47.542;19.090;2024-03-08T15:18:44;100676.25;;;7.60;82.02
75923;BME280;64602;47.542;19.090;2024-03-08T15:23:53;100652.16;;;7.59;82.39
75923;BME280;64602;47.542;19.090;2024-03-08T15:28:57;100670.19;;;7.65;82.25
75923;BME280;64602;47.542;19.090;2024-03-08T15:34:00;100665.31;;;7.55;82.16
75923;BME280;64602;47.542;19.090;2024-03-08T15:39:08;100666.34;;;7.54;82.92
75923;BME280;64602;47.542;19.090;2024-03-08T15:44:12;100662.75;;;7.42;83.25
75923;BME280;64602;47.542;19.090;2024-03-08T15:49:15;100663.87;;;7.34;83.41
75923;BME280;64602;47.542;19.090;2024-03-08T15:54:19;100653.87;;;7.35;83.55
75923;BME280;64602;47.542;19.090;2024-03-08T15:59:21;100657.87;;;7.32;83.65
75923;BME280;64602;47.542;19.090;2024-03-08T16:04:23;100659.75;;;7.32;83.67
75923;BME280;64602;47.542;19.090;2024-03-08T16:09:27;100657.34;;;7.23;83.82
75923;BME280;64602;47.542;19.090;2024-03-08T16:14:36;100679.91;;;7.29;83.96
75923;BME280;64602;47.542;19.090;2024-03-08T16:19:40;100657.56;;;7.22;84.28
75923;BME280;64602;47.542;19.090;2024-03-08T16:24:43;100667.91;;;7.25;84.37
75923;BME280;64602;47.542;19.090;2024-03-08T16:29:45;100662.00;;;7.16;84.47
75923;BME280;64602;47.542;19.090;2024-03-08T16:34:49;100659.28;;;7.16;84.78
75923;BME280;64602;47.542;19.090;2024-03-08T16:39:53;100671.50;;;7.19;84.59
75923;BME280;64602;47.542;19.090;2024-03-08T16:44:56;100671.50;;;7.19;84.73
75923;BME280;64602;47.542;19.090;2024-03-08T16:49:58;100664.44;;;7.18;84.80
75923;BME280;64602;47.542;19.090;2024-03-08T16:55:01;100666.78;;;7.14;85.06
75923;BME280;64602;47.542;19.090;2024-03-08T17:00:11;100662.19;;;7.15;85.18
75923;BME280;64602;47.542;19.090;2024-03-08T17:05:16;100670.28;;;7.15;85.22
75923;BME280;64602;47.542;19.090;2024-03-08T17:10:18;100670.13;;;7.10;85.62
75923;BME280;64602;47.542;19.090;2024-03-08T17:15:22;100659.59;;;7.01;85.92
75923;BME280;64602;47.542;19.090;2024-03-08T17:20:27;100663.38;;;7.00;85.94
75923;BME280;64602;47.542;19.090;2024-03-08T17:25:30;100673.88;;;7.09;86.12
75923;BME280;64602;47.542;19.090;2024-03-08T17:30:33;100676.34;;;7.10;86.21
75923;BME280;64602;47.542;19.090;2024-03-08T17:35:36;100676.00;;;7.06;86.22
75923;BME280;64602;47.542;19.090;2024-03-08T17:40:41;100680.31;;;7.07;86.29
75923;BME280;64602;47.542;19.090;2024-03-08T17:45:45;100675.59;;;7.03;86.56
75923;BME280;64602;47.542;19.090;2024-03-08T17:50:48;100669.97;;;7.04;86.75
75923;BME280;64602;47.542;19.090;2024-03-08T17:55:51;100665.25;;;7.00;86.67
75923;BME280;64602;47.542;19.090;2024-03-08T18:00:56;100687.59;;;7.07;86.75
75923;BME280;64602;47.542;19.090;2024-03-08T18:05:58;100657.34;;;6.98;86.85
75923;BME280;64602;47.542;19.090;2024-03-08T18:11:00;100680.13;;;7.09;86.80
75923;BME280;64602;47.542;19.090;2024-03-08T18:16:03;100683.63;;;7.10;87.27
75923;BME280;64602;47.542;19.090;2024-03-08T18:21:09;100676.25;;;6.98;87.55
75923;BME280;64602;47.542;19.090;2024-03-08T18:26:11;100680.38;;;7.01;87.59
75923;BME280;64602;47.542;19.090;2024-03-08T18:31:14;100683.06;;;7.01;87.68
75923;BME280;64602;47.542;19.090;2024-03-08T18:36:17;100674.97;;;7.01;88.03
75923;BME280;64602;47.542;19.090;2024-03-08T18:41:20;100669.81;;;6.99;87.75
75923;BME280;64602;47.542;19.090;2024-03-08T18:46:23;100678.69;;;7.06;87.77
75923;BME280;64602;47.542;19.090;2024-03-08T18:51:25;100666.28;;;6.99;87.77
75923;BME280;64602;47.542;19.090;2024-03-08T18:56:28;100663.38;;;7.00;87.90
75923;BME280;64602;47.542;19.090;2024-03-08T19:01:30;100676.03;;;7.00;88.21
75923;BME280;64602;47.542;19.090;2024-03-08T19:06:36;100668.59;;;6.95;88.34
75923;BME280;64602;47.542;19.090;2024-03-08T19:11:38;100668.59;;;6.95;88.33
75923;BME280;64602;47.542;19.090;2024-03-08T19:16:42;100670.84;;;6.98;87.98
75923;BME280;64602;47.542;19.090;2024-03-08T19:21:46;100671.50;;;6.94;88.10
75923;BME280;64602;47.542;19.090;2024-03-08T19:26:49;100673.94;;;7.02;88.08
75923;BME280;64602;47.542;19.090;2024-03-08T19:31:51;100668.81;;;6.94;88.13
75923;BME280;64602;47.542;19.090;2024-03-08T19:36:53;100667.13;;;6.99;88.30
75923;BME280;64602;47.542;19.090;2024-03-08T19:41:55;100661.72;;;6.99;88.62
75923;BME280;64602;47.542;19.090;2024-03-08T19:46:58;100648.91;;;6.95;88.54
75923;BME280;64602;47.542;19.090;2024-03-08T19:52:00;100660.47;;;7.02;88.42
75923;BME280;64602;47.542;19.090;2024-03-08T19:57:02;100649.25;;;6.98;88.53
75923;BME280;64602;47.542;19.090;2024-03-08T20:02:08;100662.69;;;7.05;88.65
75923;BME280;64602;47.542;19.090;2024-03-08T20:07:11;100668.31;;;7.03;88.72
75923;BME280;64602;47.542;19.090;2024-03-08T20:12:15;100655.56;;;6.92;89.03
75923;BME280;64602;47.542;19.090;2024-03-08T20:17:18;100656.84;;;6.90;89.20
75923;BME280;64602;47.542;19.090;2024-03-08T20:22:20;100669.81;;;6.99;89.09
75923;BME280;64602;47.542;19.090;2024-03-08T20:27:24;100663.56;;;6.99;89.67
75923;BME280;64602;47.542;19.090;2024-03-08T20:32:28;100666.06;;;7.00;90.50
75923;BME280;64602;47.542;19.090;2024-03-08T20:37:31;100663.56;;;6.99;91.00
75923;BME280;64602;47.542;19.090;2024-03-08T20:42:33;100658.59;;;6.77;91.79
75923;BME280;64602;47.542;19.090;2024-03-08T20:47:35;100659.41;;;6.78;92.27
75923;BME280;64602;47.542;19.090;2024-03-08T20:52:42;100639.09;;;6.75;92.56
75923;BME280;64602;47.542;19.090;2024-03-08T20:57:45;100639.66;;;6.59;92.85
75923;BME280;64602;47.542;19.090;2024-03-08T21:02:48;100658.84;;;6.69;93.04
75923;BME280;64602;47.542;19.090;2024-03-08T21:07:50;100653.41;;;6.76;93.41
75923;BME280;64602;47.542;19.090;2024-03-08T21:12:53;100640.25;;;6.61;92.98
75923;BME280;64602;47.542;19.090;2024-03-08T21:17:57;100648.88;;;6.70;93.33
75923;BME280;64602;47.542;19.090;2024-03-08T21:23:02;100642.12;;;6.60;93.23
75923;BME280;64602;47.542;19.090;2024-03-08T21:28:06;100638.19;;;6.63;93.56
75923;BME280;64602;47.542;19.090;2024-03-08T21:33:09;100617.22;;;6.65;93.31
75923;BME280;64602;47.542;19.090;2024-03-08T21:38:15;100611.81;;;6.65;93.31
75923;BME280;64602;47.542;19.090;2024-03-08T21:43:17;100619.81;;;6.72;92.84
75923;BME280;64602;47.542;19.090;2024-03-08T21:48:20;100615.19;;;6.79;92.37
75923;BME280;64602;47.542;19.090;2024-03-08T21:53:22;100628.47;;;6.80;92.25
75923;BME280;64602;47.542;19.090;2024-03-08T21:58:35;100617.13;;;6.72;92.17
75923;BME280;64602;47.542;19.090;2024-03-08T22:03:39;100623.91;;;6.81;91.96
75923;BME280;64602;47.542;19.090;2024-03-08T22:08:41;100620.66;;;6.72;91.99
75923;BME280;64602;47.542;19.090;2024-03-08T22:13:44;100624.72;;;6.81;92.03
75923;BME280;64602;47.542;19.090;2024-03-08T22:18:48;100608.78;;;6.80;91.95
75923;BME280;64602;47.542;19.090;2024-03-08T22:23:50;100606.66;;;6.82;92.07
75923;BME280;64602;47.542;19.090;2024-03-08T22:28:53;100619.47;;;6.87;92.10
75923;BME280;64602;47.542;19.090;2024-03-08T22:33:55;100609.81;;;6.79;91.99
75923;BME280;64602;47.542;19.090;2024-03-08T22:38:57;100610.41;;;6.81;92.10
75923;BME280;64602;47.542;19.090;2024-03-08T22:43:59;100616.63;;;6.81;92.21
75923;BME280;64602;47.542;19.090;2024-03-08T22:49:02;100616.22;;;6.84;92.05
75923;BME280;64602;47.542;19.090;2024-03-08T22:54:05;100614.16;;;6.80;92.18
75923;BME280;64602;47.542;19.090;2024-03-08T22:59:07;100603.47;;;6.67;92.22
75923;BME280;64602;47.542;19.090;2024-03-08T23:04:09;100615.19;;;6.79;92.36
75923;BME280;64602;47.542;19.090;2024-03-08T23:09:13;100599.47;;;6.76;92.55
75923;BME280;64602;47.542;19.090;2024-03-08T23:14:15;100603.28;;;6.68;92.46
75923;BME280;64602;47.542;19.090;2024-03-08T23:19:18;100608.62;;;6.75;92.39
75923;BME280;64602;47.542;19.090;2024-03-08T23:24:22;100611.06;;;6.76;92.54
75923;BME280;64602;47.542;19.090;2024-03-08T23:29:26;100618.72;;;6.79;92.31
75923;BME280;64602;47.542;19.090;2024-03-08T23:34:28;100600.34;;;6.70;91.96
75923;BME280;64602;47.542;19.090;2024-03-08T23:39:31;100604.25;;;6.74;91.89
75923;BME280;64602;47.542;19.090;2024-03-08T23:44:34;100612.34;;;6.74;91.60
75923;BME280;64602;47.542;19.090;2024-03-08T23:49:40;100613.63;;;6.71;91.58
75923;BME280;64602;47.542;19.090;2024-03-08T23:54:42;100604.75;;;6.64;91.64
75923;BME280;64602;47.542;19.090;2024-03-08T23:59:44;100599.56;;;6.62;91.78
